createdAt,value
2022-09-09T00:00:19.689Z,74.09
2022-09-09T00:03:29.659Z,74.25
2022-09-09T00:06:45.540Z,74.36
2022-09-09T00:09:59.651Z,74.31
2022-09-09T00:13:18.276Z,74.41
2022-09-09T00:16:28.411Z,74.39
2022-09-09T00:19:41.200Z,74.49
2022-09-09T00:23:00.683Z,74.61
2022-09-09T00:26:15.946Z,74.70
2022-09-09T00:29:32.585Z,74.75
2022-09-09T00:32:40.432Z,74.81
2022-09-09T00:35:49.766Z,74.82
2022-09-09T00:38:59.731Z,74.92
2022-09-09T00:42:17.438Z,74.87
2022-09-09T00:45:41.982Z,74.97
2022-09-09T00:48:55.443Z,74.98
2022-09-09T00:52:19.570Z,75.13
2022-09-09T00:55:41.465Z,75.14
2022-09-09T00:59:01.159Z,75.19
2022-09-09T01:02:14.470Z,75.33
2022-09-09T01:05:27.704Z,75.26
2022-09-09T01:09:07.302Z,75.34
2022-09-09T01:12:17.851Z,75.41
2022-09-09T01:15:29.033Z,75.50
2022-09-09T01:18:38.084Z,75.44
2022-09-09T01:22:02.518Z,75.55
2022-09-09T01:26:03.215Z,75.57
2022-09-09T01:29:11.727Z,75.58
2022-09-09T01:32:51.413Z,75.65
2022-09-09T01:36:02.861Z,75.57
2022-09-09T01:39:08.908Z,75.69
2022-09-09T01:42:17.443Z,75.61
2022-09-09T01:45:24.320Z,75.59
2022-09-09T01:48:30.667Z,75.70
2022-09-09T01:51:37.017Z,75.74
2022-09-09T01:54:43.040Z,75.78
2022-09-09T01:57:58.542Z,75.84
2022-09-09T02:01:15.447Z,75.97
2022-09-09T02:04:33.646Z,75.87
2022-09-09T02:07:43.539Z,75.89
2022-09-09T02:10:56.102Z,75.94
2022-09-09T02:14:06.955Z,75.95
2022-09-09T02:17:16.838Z,76.05
2022-09-09T02:20:25.339Z,76.02
2022-09-09T02:23:32.905Z,76.10
2022-09-09T02:26:41.610Z,76.17
2022-09-09T02:29:48.781Z,76.16
2022-09-09T02:32:59.076Z,76.16
2022-09-09T02:36:08.094Z,76.23
2022-09-09T02:39:14.726Z,76.36
2022-09-09T02:42:20.658Z,76.23
2022-09-09T02:45:27.283Z,76.30
2022-09-09T02:48:38.968Z,76.47
2022-09-09T02:51:56.442Z,76.42
2022-09-09T02:55:12.318Z,76.42
2022-09-09T02:58:20.490Z,76.40
2022-09-09T03:01:26.846Z,76.47
2022-09-09T03:04:33.405Z,76.36
2022-09-09T03:07:40.962Z,76.60
2022-09-09T03:10:46.843Z,76.62
2022-09-09T03:13:52.742Z,76.59
2022-09-09T03:16:57.624Z,76.62
2022-09-09T03:20:04.017Z,76.76
2022-09-09T03:23:15.017Z,76.62
2022-09-09T03:26:21.742Z,76.61
2022-09-09T03:29:26.036Z,76.61
2022-09-09T03:32:32.447Z,76.74
2022-09-09T03:35:38.354Z,76.80
2022-09-09T03:38:44.482Z,76.76
2022-09-09T03:41:50.347Z,76.74
2022-09-09T03:44:58.914Z,76.76
2022-09-09T03:48:06.495Z,76.76
2022-09-09T03:51:12.375Z,76.74
2022-09-09T03:54:18.397Z,76.85
2022-09-09T03:57:24.854Z,76.89
2022-09-09T04:00:31.708Z,76.80
2022-09-09T04:03:37.660Z,76.87
2022-09-09T04:06:41.947Z,76.92
2022-09-09T04:09:47.852Z,76.92
2022-09-09T04:12:53.730Z,76.86
2022-09-09T04:16:01.519Z,76.99
2022-09-09T04:19:08.830Z,76.91
2022-09-09T04:22:14.735Z,76.90
2022-09-09T04:25:20.687Z,76.94
2022-09-09T04:28:28.893Z,76.96
2022-09-09T04:31:35.839Z,77.00
2022-09-09T04:34:42.354Z,77.02
2022-09-09T04:37:49.045Z,77.01
2022-09-09T04:40:55.397Z,77.16
2022-09-09T04:44:01.872Z,77.16
2022-09-09T04:47:08.023Z,77.24
2022-09-09T04:50:14.181Z,77.21
2022-09-09T04:53:20.226Z,77.33
2022-09-09T04:56:24.597Z,77.29
2022-09-09T04:59:31.302Z,77.47
2022-09-09T05:02:39.168Z,77.51
2022-09-09T05:05:45.797Z,77.67
2022-09-09T05:08:51.785Z,77.63
2022-09-09T05:11:56.074Z,77.70
2022-09-09T05:15:02.747Z,77.78
2022-09-09T05:18:09.806Z,77.75
2022-09-09T05:21:17.617Z,77.84
2022-09-09T05:24:24.272Z,77.77
2022-09-09T05:27:32.520Z,77.85
2022-09-09T05:30:38.411Z,77.84
2022-09-09T05:33:47.139Z,77.86
2022-09-09T05:36:53.873Z,77.85
2022-09-09T05:40:00.266Z,77.76
2022-09-09T05:43:06.321Z,77.76
2022-09-09T05:46:11.313Z,77.73
2022-09-09T05:49:17.246Z,77.85
2022-09-09T05:52:21.725Z,77.79
2022-09-09T05:55:27.786Z,77.96
2022-09-09T05:58:34.478Z,77.94
2022-09-09T06:01:41.609Z,77.98
2022-09-09T06:04:47.968Z,77.96
2022-09-09T06:07:56.814Z,77.96
2022-09-09T06:11:07.500Z,77.99
2022-09-09T06:14:13.410Z,77.95
2022-09-09T06:17:19.386Z,78.03
2022-09-09T06:20:24.055Z,78.04
2022-09-09T06:23:30.815Z,78.09
2022-09-09T06:26:38.734Z,78.09
2022-09-09T06:29:44.598Z,78.16
2022-09-09T06:32:51.086Z,78.18
2022-09-09T06:35:58.309Z,78.18
2022-09-09T06:39:04.995Z,78.22
2022-09-09T06:42:11.190Z,78.29
2022-09-09T06:45:17.107Z,78.34
2022-09-09T06:48:21.322Z,78.46
2022-09-09T06:51:28.863Z,78.40
2022-09-09T06:54:34.762Z,78.19
2022-09-09T06:57:38.974Z,77.85
2022-09-09T07:00:44.877Z,77.97
2022-09-09T07:03:51.308Z,78.01
2022-09-09T07:06:57.148Z,77.83
2022-09-09T07:10:01.398Z,77.74
2022-09-09T07:13:08.737Z,77.55
2022-09-09T07:16:16.821Z,77.36
2022-09-09T07:19:22.718Z,76.92
2022-09-09T07:22:26.925Z,76.47
2022-09-09T07:25:32.851Z,76.35
2022-09-09T07:28:37.189Z,76.11
2022-09-09T07:31:43.894Z,76.08
2022-09-09T07:34:51.318Z,75.94
2022-09-09T07:37:57.274Z,75.48
2022-09-09T07:41:12.764Z,75.46
2022-09-09T07:44:20.210Z,74.87
2022-09-09T07:47:26.071Z,74.94
2022-09-09T07:50:30.597Z,74.75
2022-09-09T07:53:37.783Z,74.51
2022-09-09T07:56:44.286Z,74.44
2022-09-09T07:59:50.497Z,74.21
2022-09-09T08:02:56.423Z,74.01
2022-09-09T08:06:07.371Z,73.45
2022-09-09T08:09:13.593Z,72.79
2022-09-09T08:12:20.042Z,72.53
2022-09-09T08:15:25.915Z,72.45
2022-09-09T08:18:32.042Z,72.03
2022-09-09T08:21:41.205Z,71.73
2022-09-09T08:24:48.330Z,71.70
2022-09-09T08:27:55.372Z,71.52
2022-09-09T08:31:09.344Z,71.51
2022-09-09T08:34:16.133Z,71.37
2022-09-09T08:37:22.704Z,71.07
2022-09-09T08:40:36.133Z,71.12
2022-09-09T08:43:43.830Z,71.00
2022-09-09T08:47:03.203Z,70.50
2022-09-09T08:50:22.817Z,70.31
2022-09-09T08:53:39.126Z,70.45
2022-09-09T08:56:45.799Z,69.89
2022-09-09T08:59:52.894Z,70.01
2022-09-09T09:03:08.018Z,70.16
2022-09-09T09:06:29.419Z,70.04
2022-09-09T09:09:41.358Z,69.42
2022-09-09T09:12:50.163Z,69.21
2022-09-09T09:16:01.049Z,68.69
2022-09-09T09:19:07.166Z,68.62
2022-09-09T09:22:23.120Z,68.63
2022-09-09T09:25:33.814Z,68.36
2022-09-09T09:28:41.886Z,68.04
2022-09-09T09:31:51.054Z,67.53
2022-09-09T09:35:00.533Z,67.12
2022-09-09T09:41:46.775Z,66.65
2022-09-09T09:44:53.411Z,66.57
2022-09-09T09:48:08.490Z,66.63
2022-09-09T09:51:17.929Z,66.01
2022-09-09T09:54:30.485Z,65.50
2022-09-09T09:57:38.195Z,65.42
2022-09-09T10:00:52.363Z,65.38
2022-09-09T10:04:00.499Z,65.49
2022-09-09T10:07:14.580Z,65.14
2022-09-09T10:10:29.883Z,64.33
2022-09-09T10:13:46.965Z,64.08
2022-09-09T10:17:06.475Z,64.08
2022-09-09T10:20:34.789Z,63.94
2022-09-09T10:23:55.473Z,63.75
2022-09-09T10:27:08.790Z,63.32
2022-09-09T10:30:20.139Z,63.03
2022-09-09T10:33:35.242Z,62.81
2022-09-09T10:36:50.244Z,62.68
2022-09-09T10:40:04.817Z,62.09
2022-09-09T10:43:22.629Z,62.06
2022-09-09T10:46:37.236Z,61.60
2022-09-09T10:50:09.594Z,61.08
2022-09-09T10:53:24.923Z,60.89
2022-09-09T10:56:30.291Z,60.61
2022-09-09T10:59:42.715Z,59.69
2022-09-09T11:02:51.799Z,60.05
2022-09-09T11:06:02.118Z,59.90
2022-09-09T11:09:16.884Z,59.59
2022-09-09T11:12:23.799Z,59.44
2022-09-09T11:15:37.473Z,59.01
2022-09-09T11:18:46.797Z,58.51
2022-09-09T11:21:55.561Z,58.02
2022-09-09T11:25:06.177Z,57.56
2022-09-09T11:28:32.322Z,57.55
2022-09-09T11:31:47.604Z,57.05
2022-09-09T11:34:57.720Z,57.18
2022-09-09T11:38:27.475Z,57.19
2022-09-09T11:41:38.818Z,56.86
2022-09-09T11:44:45.366Z,56.38
2022-09-09T11:47:58.078Z,56.11
2022-09-09T11:51:11.052Z,55.92
2022-09-09T11:54:33.171Z,55.48
2022-09-09T11:57:40.631Z,55.35
2022-09-09T12:00:48.603Z,55.50
2022-09-09T12:03:58.284Z,55.61
2022-09-09T12:07:07.066Z,55.40
2022-09-09T12:10:28.629Z,55.21
2022-09-09T12:13:35.127Z,55.06
2022-09-09T12:16:41.441Z,55.08
2022-09-09T12:19:47.679Z,55.02
2022-09-09T12:23:09.935Z,55.12
2022-09-09T12:26:36.234Z,55.23
2022-09-09T12:29:51.222Z,55.10
2022-09-09T12:33:11.760Z,54.72
2022-09-09T12:36:21.783Z,54.41
2022-09-09T12:39:36.050Z,54.17
2022-09-09T12:42:44.793Z,53.82
2022-09-09T12:45:57.723Z,53.71
2022-09-09T12:49:03.779Z,53.33
2022-09-09T12:52:15.721Z,53.40
2022-09-09T12:55:26.325Z,53.52
2022-09-09T12:58:34.143Z,53.55
2022-09-09T13:01:40.252Z,53.62
2022-09-09T13:04:48.104Z,53.42
2022-09-09T13:07:54.410Z,53.13
2022-09-09T13:11:04.350Z,52.98
2022-09-09T13:14:20.215Z,53.08
2022-09-09T13:17:30.200Z,52.80
2022-09-09T13:20:36.216Z,52.35
2022-09-09T13:23:42.193Z,52.07
2022-09-09T13:26:57.267Z,52.30
2022-09-09T13:30:03.509Z,51.99
2022-09-09T13:33:24.294Z,51.59
2022-09-09T13:36:35.918Z,51.26
2022-09-09T13:39:41.932Z,51.46
2022-09-09T13:42:49.101Z,51.42
2022-09-09T13:46:00.512Z,51.12
2022-09-09T13:49:23.870Z,51.01
2022-09-09T13:52:33.026Z,50.72
2022-09-09T13:55:40.573Z,50.27
2022-09-09T13:58:46.438Z,50.11
2022-09-09T14:01:53.479Z,49.97
2022-09-09T14:04:59.359Z,49.74
2022-09-09T14:08:08.322Z,49.95
2022-09-09T14:11:16.099Z,50.10
2022-09-09T14:14:21.980Z,49.46
2022-09-09T14:17:32.434Z,49.33
2022-09-09T14:20:38.316Z,49.19
2022-09-09T14:23:44.200Z,49.01
2022-09-09T14:26:50.155Z,48.84
2022-09-09T14:29:56.349Z,49.01
2022-09-09T14:33:02.270Z,49.06
2022-09-09T14:36:08.998Z,48.82
2022-09-09T14:39:15.017Z,48.45
2022-09-09T14:42:20.971Z,48.36
2022-09-09T14:45:27.542Z,48.45
2022-09-09T14:48:35.065Z,48.41
2022-09-09T14:51:41.066Z,48.51
2022-09-09T14:54:46.912Z,48.40
2022-09-09T14:57:52.795Z,48.49
2022-09-09T15:01:03.902Z,48.28
2022-09-09T15:04:09.995Z,48.28
2022-09-09T15:07:15.902Z,48.34
2022-09-09T15:10:22.244Z,48.33
2022-09-09T15:13:28.266Z,48.44
2022-09-09T15:16:34.855Z,48.53
2022-09-09T15:19:43.235Z,48.59
2022-09-09T15:22:49.851Z,48.71
2022-09-09T15:25:57.631Z,48.56
2022-09-09T15:29:04.027Z,48.67
2022-09-09T15:32:10.558Z,48.81
2022-09-09T15:35:16.563Z,49.07
2022-09-09T15:38:22.462Z,49.11
2022-09-09T15:41:29.659Z,49.33
2022-09-09T15:44:43.611Z,49.25
2022-09-09T15:47:51.459Z,49.23
2022-09-09T15:51:19.575Z,49.29
2022-09-09T15:54:35.920Z,49.43
2022-09-09T15:57:41.782Z,49.68
2022-09-09T16:00:47.973Z,49.77
2022-09-09T16:03:54.004Z,49.77
2022-09-09T16:07:02.029Z,49.96
2022-09-09T16:10:09.339Z,50.15
2022-09-09T16:13:15.226Z,50.91
2022-09-09T16:16:24.843Z,51.18
2022-09-09T16:19:30.718Z,51.11
2022-09-09T16:22:36.657Z,51.08
2022-09-09T16:25:43.412Z,51.23
2022-09-09T16:28:49.754Z,51.35
2022-09-09T16:31:59.883Z,51.40
2022-09-09T16:35:10.587Z,51.72
2022-09-09T16:38:16.548Z,52.13
2022-09-09T16:41:23.022Z,52.58
2022-09-09T16:44:28.975Z,52.78
2022-09-09T16:47:35.418Z,53.08
2022-09-09T16:50:41.567Z,53.31
2022-09-09T16:53:47.830Z,53.66
2022-09-09T16:56:53.703Z,54.01
2022-09-09T17:00:00.624Z,54.26
2022-09-09T17:03:07.067Z,54.49
2022-09-09T17:06:16.023Z,54.67
2022-09-09T17:09:23.729Z,55.11
2022-09-09T17:12:29.708Z,55.40
2022-09-09T17:15:35.883Z,55.68
2022-09-09T17:18:42.242Z,55.91
2022-09-09T17:22:14.917Z,56.08
2022-09-09T17:25:15.188Z,56.47
2022-09-09T17:28:26.493Z,56.66
2022-09-09T17:31:33.736Z,56.92
2022-09-09T17:34:40.170Z,56.99
2022-09-09T17:37:46.283Z,57.44
2022-09-09T17:40:52.182Z,57.55
2022-09-09T17:43:56.709Z,57.73
2022-09-09T17:47:19.830Z,58.04
2022-09-09T17:50:26.106Z,58.32
2022-09-09T17:53:32.503Z,58.57
2022-09-09T17:56:39.915Z,58.62
2022-09-09T17:59:45.890Z,58.94
2022-09-09T18:02:51.890Z,59.08
2022-09-09T18:06:03.717Z,59.20
2022-09-09T18:09:13.356Z,59.42
2022-09-09T18:12:19.299Z,59.69
2022-09-09T18:15:33.590Z,59.81
2022-09-09T18:18:45.522Z,60.07
2022-09-09T18:21:51.737Z,60.14
2022-09-09T18:24:58.099Z,60.43
2022-09-09T18:28:04.123Z,60.56
2022-09-09T18:31:12.816Z,60.52
2022-09-09T18:34:20.250Z,60.78
2022-09-09T18:37:26.197Z,61.05
2022-09-09T18:40:31.124Z,61.05
2022-09-09T18:43:36.982Z,61.38
2022-09-09T18:46:41.897Z,61.56
2022-09-09T18:49:47.951Z,61.74
2022-09-09T18:52:54.074Z,61.78
2022-09-09T18:56:02.943Z,61.81
2022-09-09T18:59:11.687Z,61.99
2022-09-09T19:02:17.576Z,62.09
2022-09-09T19:05:21.835Z,62.26
2022-09-09T19:08:27.877Z,62.34
2022-09-09T19:11:34.166Z,62.48
2022-09-09T19:14:40.459Z,62.49
2022-09-09T19:17:46.337Z,62.65
2022-09-09T19:20:50.544Z,62.67
2022-09-09T19:24:01.047Z,62.93
2022-09-09T19:27:08.071Z,63.08
2022-09-09T19:30:14.715Z,63.20
2022-09-09T19:33:20.614Z,63.31
2022-09-09T19:36:25.524Z,63.32
2022-09-09T19:39:32.258Z,63.52
2022-09-09T19:42:38.161Z,63.41
2022-09-09T19:45:42.349Z,63.62
2022-09-09T19:48:48.834Z,63.82
2022-09-09T19:51:56.015Z,63.77
2022-09-09T19:55:01.890Z,63.95
2022-09-09T19:58:07.935Z,64.11
2022-09-09T20:01:13.162Z,64.22
2022-09-09T20:04:19.078Z,64.44
2022-09-09T20:07:24.093Z,64.53
2022-09-09T20:10:30.443Z,64.70
2022-09-09T20:13:39.138Z,64.84
2022-09-09T20:16:46.588Z,64.97
2022-09-09T20:19:52.549Z,64.90
2022-09-09T20:22:57.642Z,64.92
2022-09-09T20:26:08.013Z,65.27
2022-09-09T20:29:17.327Z,65.43
2022-09-09T20:32:23.179Z,65.47
2022-09-09T20:35:29.551Z,65.44
2022-09-09T20:38:35.685Z,65.55
2022-09-09T20:41:45.528Z,65.57
2022-09-09T20:44:51.962Z,65.74
2022-09-09T20:47:58.238Z,65.80
2022-09-09T20:51:10.105Z,65.91
2022-09-09T20:54:17.850Z,66.04
2022-09-09T20:57:24.618Z,66.00
2022-09-09T21:00:30.549Z,66.29
2022-09-09T21:03:37.202Z,66.31
2022-09-09T21:06:43.390Z,66.41
2022-09-09T21:09:49.436Z,66.44
2022-09-09T21:12:54.653Z,66.61
2022-09-09T21:16:00.932Z,66.74
2022-09-09T21:19:06.892Z,66.56
2022-09-09T21:22:14.340Z,66.71
2022-09-09T21:25:20.220Z,66.75
2022-09-09T21:28:27.852Z,66.91
2022-09-09T21:31:33.945Z,66.95
2022-09-09T21:34:42.160Z,67.11
2022-09-09T21:37:48.283Z,67.22
2022-09-09T21:40:54.318Z,67.24
2022-09-09T21:43:58.553Z,67.29
2022-09-09T21:47:04.572Z,67.49
2022-09-09T21:50:09.541Z,67.40
2022-09-09T21:53:20.449Z,67.60
2022-09-09T21:56:26.926Z,67.59
2022-09-09T21:59:33.995Z,67.83
2022-09-09T22:02:40.218Z,67.81
2022-09-09T22:05:50.719Z,67.84
2022-09-09T22:09:01.875Z,67.99
2022-09-09T22:12:08.370Z,68.11
2022-09-09T22:15:14.707Z,68.13
2022-09-09T22:18:20.566Z,68.35
2022-09-09T22:21:27.854Z,68.41
2022-09-09T22:24:34.263Z,68.45
2022-09-09T22:27:40.258Z,68.53
2022-09-09T22:30:44.464Z,68.55
2022-09-09T22:33:51.224Z,68.64
2022-09-09T22:36:57.478Z,68.68
2022-09-09T22:40:03.740Z,68.68
2022-09-09T22:43:16.761Z,68.77
2022-09-09T22:46:23.813Z,68.88
2022-09-09T22:49:30.387Z,68.90
2022-09-09T22:52:36.253Z,68.90
2022-09-09T22:55:42.324Z,68.96
2022-09-09T22:58:47.316Z,69.23
2022-09-09T23:01:53.497Z,69.32
2022-09-09T23:04:59.670Z,69.40
2022-09-09T23:08:05.611Z,69.54
2022-09-09T23:11:13.791Z,69.60
2022-09-09T23:14:19.670Z,69.82
2022-09-09T23:17:25.905Z,69.77
2022-09-09T23:20:32.343Z,69.78
2022-09-09T23:23:39.030Z,69.85
2022-09-09T23:26:46.762Z,69.83
2022-09-09T23:29:52.894Z,70.06
2022-09-09T23:32:58.738Z,70.23
2022-09-09T23:36:08.546Z,70.24
2022-09-09T23:39:14.902Z,70.29
2022-09-09T23:42:20.788Z,70.44
2022-09-09T23:45:26.635Z,70.56
2022-09-09T23:48:32.539Z,70.68
2022-09-09T23:51:39.055Z,70.60
2022-09-09T23:54:45.310Z,70.65
2022-09-09T23:57:51.907Z,70.72
